Time;durP1;ratioP1;P1;durP2;ratioP2;P2;SDS_P1;SDS_P2;PMS_P1;PMS_P2;Temp;Humidity;BMP_temperature;BMP_pressure;BME280_temperature;BME280_humidity;BME280_pressure;Samples;Min_cycle;Max_cycle;Signal;HPM_P1;HPM_P2
2022/04/25 00:00:15;;;;;;;;;18.75;18.75;;;;;17.26;44.52;100218.84;2103562;28;47626;-57
2022/04/25 00:01:16;;;;;;;;;19.25;19.00;;;;;17.25;44.54;100222.47;2094759;28;47482;-57
2022/04/25 00:02:16;;;;;;;;;19.80;18.40;;;;;17.23;44.50;100220.84;2103280;28;48002;-59
2022/04/25 00:03:17;;;;;;;;;18.50;18.50;;;;;17.22;44.43;100227.16;2104266;27;48228;-59
2022/04/25 00:04:17;;;;;;;;;23.25;19.75;;;;;17.20;44.43;100219.22;2103933;27;47349;-58
2022/04/25 00:05:18;;;;;;;;;20.00;18.75;;;;;17.19;44.84;100220.16;2104159;27;47507;-59
2022/04/25 00:06:18;;;;;;;;;17.25;17.25;;;;;17.20;44.67;100229.06;2104234;27;47539;-57
2022/04/25 00:07:19;;;;;;;;;23.50;18.75;;;;;17.18;44.43;100218.44;2094333;28;47885;-59
2022/04/25 00:08:19;;;;;;;;;22.25;20.75;;;;;17.17;44.84;100222.06;2094935;28;47553;-59
2022/04/25 00:09:19;;;;;;;;;21.75;20.25;;;;;17.15;44.62;100225.78;2103772;28;48001;-59
2022/04/25 00:10:20;;;;;;;;;22.75;22.25;;;;;17.15;44.86;100223.09;2094300;28;47473;-59
2022/04/25 00:11:21;;;;;;;;;19.00;19.00;;;;;17.13;44.70;100222.31;2094837;28;47834;-57
2022/04/25 00:12:22;;;;;;;;;17.25;17.25;;;;;17.12;44.40;100225.94;2101922;27;48083;-58
2022/04/25 00:13:22;;;;;;;;;21.50;19.25;;;;;17.10;45.17;100219.81;2095644;28;47485;-58
2022/04/25 00:14:23;;;;;;;;;22.00;21.50;;;;;17.08;44.56;100222.59;2098281;28;47958;-57
2022/04/25 00:15:23;;;;;;;;;18.75;18.50;;;;;17.07;44.74;100234.25;2097924;28;47770;-58
2022/04/25 00:16:24;;;;;;;;;20.00;19.75;;;;;17.05;44.67;100228.13;2103673;28;47697;-59
2022/04/25 00:17:24;;;;;;;;;17.75;16.75;;;;;17.04;44.91;100229.09;2103187;28;47759;-59
2022/04/25 00:18:25;;;;;;;;;15.50;15.50;;;;;17.04;44.65;100232.63;2104006;28;47283;-58
2022/04/25 00:19:25;;;;;;;;;16.80;15.60;;;;;17.02;45.08;100220.22;2105643;27;47716;-59
2022/04/25 00:20:26;;;;;;;;;22.25;21.25;;;;;17.02;44.91;100226.50;2104149;27;47660;-59
2022/04/25 00:21:26;;;;;;;;;20.25;20.00;;;;;17.03;45.15;100225.53;2104351;27;47854;-59
2022/04/25 00:22:27;;;;;;;;;18.50;18.00;;;;;17.02;45.04;100229.16;2103554;27;47861;-61
2022/04/25 00:23:27;;;;;;;;;20.25;18.75;;;;;17.02;45.13;100229.16;2104341;27;47596;-59
2022/04/25 00:24:28;;;;;;;;;19.75;19.00;;;;;17.03;45.13;100230.91;2103814;27;47475;-59
2022/04/25 00:25:28;;;;;;;;;21.75;20.50;;;;;17.00;45.16;100220.31;2103704;27;47677;-59
2022/04/25 00:26:28;;;;;;;;;18.00;17.75;;;;;17.00;44.95;100222.13;2104148;27;47626;-59
2022/04/25 00:27:30;;;;;;;;;20.50;19.00;;;;;17.00;44.69;100222.13;2093916;28;47126;-59
2022/04/25 00:28:30;;;;;;;;;16.20;15.60;;;;;16.98;44.58;100221.38;2081471;28;48027;-59
2022/04/25 00:29:30;;;;;;;;;20.75;19.25;;;;;16.96;44.76;100215.22;2103417;28;46587;-59
2022/04/25 00:30:31;;;;;;;;;20.75;18.00;;;;;16.93;44.97;100224.31;2103647;27;48020;-59
2022/04/25 00:31:32;;;;;;;;;18.50;18.25;;;;;16.92;44.87;100217.22;2104467;27;47548;-59
2022/04/25 00:32:32;;;;;;;;;16.50;14.75;;;;;16.90;45.03;100218.28;2103568;27;47487;-59
2022/04/25 00:33:32;;;;;;;;;16.50;15.00;;;;;16.88;44.69;100226.38;2103657;27;47993;-59
2022/04/25 00:34:33;;;;;;;;;18.25;18.00;;;;;16.86;45.27;100222.06;2104084;27;47533;-57
2022/04/25 00:35:33;;;;;;;;;16.00;16.00;;;;;16.85;44.72;100218.50;2103064;28;47296;-58
2022/04/25 00:36:34;;;;;;;;;16.00;16.00;;;;;16.84;45.18;100223.97;2103162;28;47196;-59
2022/04/25 00:37:34;;;;;;;;;19.00;16.75;;;;;16.82;45.25;100221.38;2098363;28;47858;-59
2022/04/25 00:38:35;;;;;;;;;18.00;17.25;;;;;16.81;44.75;100219.63;2100078;28;45975;-59
2022/04/25 00:39:35;;;;;;;;;19.00;17.75;;;;;16.81;44.84;100222.31;2104249;27;48156;-58
2022/04/25 00:40:36;;;;;;;;;17.75;17.25;;;;;16.81;44.83;100227.69;2103107;27;45744;-60
2022/04/25 00:41:37;;;;;;;;;16.75;16.75;;;;;16.81;45.03;100224.13;2105855;27;47877;-58
2022/04/25 00:42:38;;;;;;;;;19.20;19.20;;;;;16.82;45.33;100225.84;2104002;27;47873;-60
2022/04/25 00:43:38;;;;;;;;;18.25;16.25;;;;;16.81;45.22;100233.03;2099596;27;47740;-60
2022/04/25 00:44:41;;;;;;;;;17.25;17.25;;;;;16.81;45.46;100224.13;2096694;28;47783;-59
2022/04/25 00:45:41;;;;;;;;;16.00;14.80;;;;;16.81;45.37;100226.81;2103922;27;47637;-59
2022/04/25 00:46:44;;;;;;;;;15.50;15.25;;;;;16.80;45.38;100223.28;2097421;27;47293;-58
2022/04/25 00:47:45;;;;;;;;;20.40;18.80;;;;;16.80;44.87;100222.41;2095272;28;48083;-59
2022/04/25 00:48:46;;;;;;;;;17.00;15.20;;;;;16.80;45.42;100225.94;2103535;27;48041;-59
2022/04/25 00:49:46;;;;;;;;;19.00;18.75;;;;;16.77;45.08;100224.31;2103154;27;47613;-59
2022/04/25 00:50:47;;;;;;;;;14.00;14.00;;;;;16.77;45.42;100226.13;2103520;27;47470;-59
2022/04/25 00:51:47;;;;;;;;;19.25;19.00;;;;;16.76;45.09;100221.69;2102992;27;47631;-58
2022/04/25 00:52:48;;;;;;;;;15.00;15.00;;;;;16.74;45.35;100224.44;2103054;28;47878;-58
2022/04/25 00:53:49;;;;;;;;;15.50;15.50;;;;;16.74;45.30;100227.13;2094443;28;47630;-59
2022/04/25 00:54:50;;;;;;;;;19.20;16.60;;;;;16.73;45.34;100222.72;2102965;28;48033;-60
2022/04/25 00:55:51;;;;;;;;;14.75;14.75;;;;;16.73;45.02;100230.75;2103175;27;47546;-57
2022/04/25 00:56:51;;;;;;;;;15.50;15.50;;;;;16.74;45.55;100223.59;2103940;27;47676;-58
2022/04/25 00:57:52;;;;;;;;;17.50;16.50;;;;;16.74;45.39;100224.44;2103581;27;47431;-59
2022/04/25 00:58:54;;;;;;;;;19.00;17.60;;;;;16.74;45.22;100224.44;2104097;27;45325;-58
2022/04/25 00:59:57;;;;;;;;;18.20;16.80;;;;;16.73;45.10;100230.75;2103268;27;47533;-59
2022/04/25 01:00:58;;;;;;;;;18.60;18.20;;;;;16.73;45.33;100227.22;2103530;27;47696;-58
2022/04/25 01:01:58;;;;;;;;;14.75;14.25;;;;;16.72;45.00;100226.34;2104066;27;47516;-58
2022/04/25 01:02:58;;;;;;;;;16.75;14.75;;;;;16.71;45.43;100230.00;2103724;27;47106;-58
2022/04/25 01:03:59;;;;;;;;;17.00;15.75;;;;;16.73;45.60;100232.56;2103751;27;47178;-58
2022/04/25 01:05:00;;;;;;;;;15.75;15.75;;;;;16.71;45.14;100230.00;2104220;27;47846;-59
2022/04/25 01:06:01;;;;;;;;;17.50;16.50;;;;;16.71;45.44;100230.00;2103597;27;47278;-59
2022/04/25 01:07:01;;;;;;;;;19.50;17.25;;;;;16.70;44.97;100225.59;2104177;27;47849;-59
2022/04/25 01:08:02;;;;;;;;;16.00;16.00;;;;;16.69;45.18;100229.22;2103045;28;47133;-59
2022/04/25 01:09:03;;;;;;;;;17.00;17.00;;;;;16.69;45.49;100225.66;2103276;28;47143;-59
2022/04/25 01:10:09;;;;;;;;;20.00;17.60;;;;;16.68;45.45;100232.84;2104142;27;47634;-58
2022/04/25 01:11:10;;;;;;;;;19.40;18.40;;;;;16.69;45.09;100225.66;2103654;27;47679;-58
2022/04/25 01:12:10;;;;;;;;;19.00;19.00;;;;;16.68;45.42;100230.16;2103029;27;47196;-59
2022/04/25 01:13:12;;;;;;;;;17.50;16.50;;;;;16.67;45.66;100228.44;2095741;28;47977;-59
2022/04/25 01:14:15;;;;;;;;;17.40;16.60;;;;;16.65;45.52;100224.09;2097826;28;47540;-57
2022/04/25 01:15:15;;;;;;;;;18.60;17.60;;;;;16.63;45.22;100225.94;2095992;28;47245;-59
2022/04/25 01:16:16;;;;;;;;;20.00;16.25;;;;;16.60;45.42;100224.31;2103412;27;47475;-59
2022/04/25 01:17:16;;;;;;;;;17.25;15.50;;;;;16.58;45.72;100220.84;2103576;27;48038;-59
2022/04/25 01:18:16;;;;;;;;;20.25;19.50;;;;;16.58;45.37;100223.53;2103688;27;47576;-57
2022/04/25 01:19:17;;;;;;;;;13.00;12.75;;;;;16.57;45.58;100232.53;2098298;27;48021;-57
2022/04/25 01:20:17;;;;;;;;;16.00;15.50;;;;;16.57;45.93;100228.97;2095190;28;47501;-57
2022/04/25 01:21:20;;;;;;;;;14.00;13.00;;;;;16.56;45.61;100233.47;2103343;28;47485;-58
2022/04/25 01:22:49;;;;;;;;;17.00;15.60;;;;;16.55;45.64;100225.53;2103016;27;47902;-59
2022/04/25 01:27:46;;;;;;;;;17.80;17.80;;;;;16.51;45.70;100222.13;2087479;28;47899;-59
2022/04/25 01:28:47;;;;;;;;;15.50;15.50;;;;;16.49;46.01;100216.84;2081027;28;47988;-59
2022/04/25 01:29:49;;;;;;;;;17.00;15.75;;;;;16.48;45.68;100225.84;2087954;28;45792;-59
2022/04/25 01:30:50;;;;;;;;;15.20;14.40;;;;;16.47;45.93;100220.56;2095661;28;48264;-59
2022/04/25 01:31:50;;;;;;;;;17.00;15.00;;;;;16.45;45.56;100228.69;2095596;28;47135;-59
2022/04/25 01:32:52;;;;;;;;;17.25;15.00;;;;;16.44;46.05;100224.28;2095613;28;48487;-59
2022/04/25 01:33:53;;;;;;;;;16.00;16.00;;;;;16.44;46.22;100228.78;2095646;28;48300;-59
2022/04/25 01:34:53;;;;;;;;;13.80;13.60;;;;;16.44;46.20;100224.28;2095149;28;47289;-60
2022/04/25 01:35:54;;;;;;;;;18.25;16.50;;;;;16.42;45.72;100222.63;2095893;28;47826;-60
2022/04/25 01:36:54;;;;;;;;;19.75;18.50;;;;;16.41;45.65;100229.81;2095446;28;47485;-59
2022/04/25 01:37:55;;;;;;;;;18.75;18.75;;;;;16.41;46.30;100228.94;2078819;28;47726;-60
2022/04/25 01:38:55;;;;;;;;;15.00;14.00;;;;;16.40;46.13;100233.44;2078642;28;47625;-59
2022/04/25 01:39:56;;;;;;;;;15.25;14.25;;;;;16.39;45.85;100228.16;2095176;28;47590;-60
2022/04/25 01:40:57;;;;;;;;;18.75;18.25;;;;;16.37;46.18;100235.38;2087743;28;47741;-58
2022/04/25 01:41:57;;;;;;;;;18.20;18.20;;;;;16.35;46.20;100237.28;2092943;28;47731;-59
2022/04/25 01:42:58;;;;;;;;;18.00;17.50;;;;;16.33;46.03;100228.47;2095424;28;47609;-59
2022/04/25 01:43:58;;;;;;;;;17.75;17.75;;;;;16.33;46.39;100229.34;2089005;28;47848;-59
2022/04/25 01:44:59;;;;;;;;;17.00;17.00;;;;;16.32;46.12;100232.09;2091707;28;47833;-60
2022/04/25 01:45:59;;;;;;;;;18.25;16.50;;;;;16.32;46.44;100235.66;2094684;28;47252;-58
2022/04/25 01:47:00;;;;;;;;;16.75;16.00;;;;;16.31;46.43;100228.56;2087951;28;47511;-59
2022/04/25 01:48:00;;;;;;;;;18.50;18.50;;;;;16.30;46.54;100232.19;2084175;28;47471;-59
2022/04/25 01:49:00;;;;;;;;;16.25;16.25;;;;;16.30;46.29;100234.88;2095815;28;48080;-60
2022/04/25 01:50:01;;;;;;;;;19.75;19.75;;;;;16.31;46.16;100233.06;2078113;28;47682;-60
2022/04/25 01:51:02;;;;;;;;;21.50;20.50;;;;;16.28;46.38;100230.53;2078702;28;47452;-58
2022/04/25 01:52:08;;;;;;;;;22.50;18.75;;;;;16.27;46.10;100232.38;2095610;28;47436;-58
2022/04/25 01:53:08;;;;;;;;;17.20;17.20;;;;;16.27;46.19;100236.84;2092617;28;47776;-59
2022/04/25 01:54:09;;;;;;;;;16.75;16.00;;;;;16.26;46.66;100238.66;2087575;28;47583;-58
2022/04/25 01:55:09;;;;;;;;;19.50;18.75;;;;;16.26;46.67;100235.09;2095800;28;47872;-59
2022/04/25 01:56:09;;;;;;;;;17.25;17.00;;;;;16.24;46.35;100237.84;2095426;28;47977;-56
2022/04/25 01:57:10;;;;;;;;;19.50;18.75;;;;;16.24;46.36;100239.66;2095776;28;47513;-58
2022/04/25 01:58:10;;;;;;;;;18.50;16.50;;;;;16.23;46.46;100235.25;2087230;28;47518;-59
2022/04/25 01:59:11;;;;;;;;;19.25;17.75;;;;;16.25;46.36;100238.72;2086835;28;47989;-59
2022/04/25 02:00:11;;;;;;;;;22.50;22.25;;;;;16.24;46.47;100237.84;2095427;28;47684;-59
2022/04/25 02:01:12;;;;;;;;;21.25;20.50;;;;;16.23;46.43;100244.16;2098637;28;47634;-59
2022/04/25 02:02:14;;;;;;;;;18.00;18.00;;;;;16.22;46.60;100238.88;2104165;27;47931;-58
2022/04/25 02:03:14;;;;;;;;;19.80;18.80;;;;;16.19;46.60;100245.28;2104379;28;47668;-59
2022/04/25 02:04:15;;;;;;;;;17.50;16.75;;;;;16.17;46.50;100245.34;2104022;27;47560;-57
2022/04/25 02:05:15;;;;;;;;;20.25;18.25;;;;;16.13;46.84;100238.44;2104997;27;47359;-59
2022/04/25 02:06:16;;;;;;;;;17.50;17.00;;;;;16.11;46.78;100242.97;2104745;27;47579;-59
2022/04/25 02:07:17;;;;;;;;;16.25;15.25;;;;;16.09;46.93;100246.69;2104767;27;47898;-58
2022/04/25 02:08:18;;;;;;;;;14.75;14.25;;;;;16.06;46.94;100237.00;2104497;28;47573;-60
2022/04/25 02:09:20;;;;;;;;;18.40;18.40;;;;;16.04;46.76;100244.25;2104369;28;47826;-59
2022/04/25 02:10:20;;;;;;;;;18.80;18.80;;;;;16.03;47.15;100247.03;2104657;27;48006;-60
2022/04/25 02:11:22;;;;;;;;;17.25;17.25;;;;;16.02;46.89;100247.97;2105130;27;47590;-57
2022/04/25 02:12:22;;;;;;;;;18.80;16.80;;;;;16.02;47.05;100253.31;2102427;27;47502;-58
2022/04/25 02:13:23;;;;;;;;;23.00;18.25;;;;;16.01;47.33;100255.13;2096644;28;47984;-59
2022/04/25 02:14:24;;;;;;;;;16.80;15.60;;;;;16.01;47.42;100257.81;2099633;28;47885;-58
2022/04/25 02:15:24;;;;;;;;;16.25;16.25;;;;;16.02;47.58;100258.69;2099075;28;47408;-58
2022/04/25 02:16:25;;;;;;;;;19.75;16.75;;;;;16.01;47.47;100260.50;2105008;27;47470;-58
2022/04/25 02:17:26;;;;;;;;;20.25;20.00;;;;;16.01;47.26;100265.84;2104846;27;48112;-58
2022/04/25 02:18:26;;;;;;;;;19.50;16.50;;;;;15.99;46.95;100262.34;2104818;27;47960;-58
2022/04/25 02:19:28;;;;;;;;;24.25;20.50;;;;;15.99;47.10;100269.50;2098536;27;48378;-58
2022/04/25 02:20:28;;;;;;;;;19.20;19.00;;;;;15.98;47.25;100265.97;2097409;28;47665;-58
2022/04/25 02:21:29;;;;;;;;;22.00;20.50;;;;;15.99;47.17;100265.03;2105180;27;47383;-58
2022/04/25 02:22:29;;;;;;;;;17.25;17.25;;;;;15.99;47.19;100264.16;2104451;27;47929;-58
2022/04/25 02:23:30;;;;;;;;;18.00;18.00;;;;;15.99;47.47;100264.16;2105088;27;47413;-59
2022/04/25 02:24:30;;;;;;;;;19.00;18.25;;;;;15.99;47.24;100270.38;2104707;28;47855;-58
2022/04/25 02:25:30;;;;;;;;;20.50;19.25;;;;;15.97;47.28;100264.25;2104378;27;47918;-60
2022/04/25 02:26:31;;;;;;;;;19.00;19.00;;;;;15.97;47.52;100263.38;2104568;28;47753;-57
2022/04/25 02:27:31;;;;;;;;;19.75;19.50;;;;;15.96;47.58;100259.84;2103986;28;47490;-57
2022/04/25 02:28:35;;;;;;;;;20.50;19.25;;;;;15.96;47.73;100270.53;2094702;28;47507;-58
2022/04/25 02:29:43;;;;;;;;;17.40;17.40;;;;;15.97;47.57;100264.25;2096046;28;47905;-59
2022/04/25 02:30:44;;;;;;;;;18.60;17.60;;;;;15.98;47.42;100268.66;2104418;27;47838;-58
2022/04/25 02:31:44;;;;;;;;;6.75;5.75;;;;;15.97;47.26;100264.25;2104256;27;47794;-59
2022/04/25 02:32:45;;;;;;;;;23.25;20.25;;;;;15.98;47.84;100265.09;2104732;27;47824;-59
2022/04/25 02:33:45;;;;;;;;;17.50;17.25;;;;;15.96;47.65;100257.16;2104297;27;47346;-59
2022/04/25 02:34:46;;;;;;;;;19.75;19.75;;;;;15.96;48.04;100256.28;2104813;27;47442;-58
2022/04/25 02:35:47;;;;;;;;;19.40;19.40;;;;;15.97;47.93;100260.69;2103937;27;47365;-59
2022/04/25 02:36:47;;;;;;;;;22.00;21.00;;;;;15.95;47.34;100263.47;2104239;27;47405;-57
2022/04/25 02:37:47;;;;;;;;;16.00;15.75;;;;;15.94;47.71;100267.09;2104482;27;47159;-59
2022/04/25 02:38:48;;;;;;;;;18.00;17.75;;;;;15.93;47.53;100264.50;2097161;27;47742;-59
2022/04/25 02:39:49;;;;;;;;;20.50;19.50;;;;;15.92;47.95;100262.75;2096276;28;47198;-59
2022/04/25 02:41:04;;;;;;;;;13.00;11.25;;;;;15.90;47.46;100262.84;2103445;28;47720;-59
2022/04/25 02:42:04;;;;;;;;;20.00;20.00;;;;;15.89;47.87;100256.63;2114755;27;47733;-58
2022/04/25 02:43:05;;;;;;;;;20.25;18.00;;;;;15.88;48.05;100264.72;2112800;27;47790;-58
2022/04/25 02:44:05;;;;;;;;;21.50;21.50;;;;;15.89;47.85;100266.47;2088552;28;47946;-57
2022/04/25 02:45:06;;;;;;;;;21.00;20.25;;;;;15.87;47.98;100265.66;2092372;28;47982;-59
2022/04/25 02:46:11;;;;;;;;;25.00;24.00;;;;;15.87;47.83;100268.31;2094098;28;47720;-59
2022/04/25 02:47:12;;;;;;;;;23.00;20.80;;;;;15.85;48.34;100264.88;2096102;28;48087;-58
2022/04/25 02:48:12;;;;;;;;;22.25;19.50;;;;;15.84;47.82;100269.34;2096116;28;48073;-58
2022/04/25 02:49:13;;;;;;;;;21.75;20.00;;;;;15.82;48.30;100265.91;2096740;28;45273;-58
2022/04/25 02:50:13;;;;;;;;;17.75;16.00;;;;;15.83;48.14;100264.94;2096372;27;47429;-59
2022/04/25 02:51:15;;;;;;;;;17.75;17.50;;;;;15.81;48.17;100261.50;2103543;28;48329;-58
2022/04/25 02:52:15;;;;;;;;;20.60;17.60;;;;;15.81;48.45;100265.97;2103122;28;48068;-59
2022/04/25 02:53:16;;;;;;;;;23.25;21.50;;;;;15.80;47.90;100264.25;2111827;27;47912;-58
2022/04/25 02:54:16;;;;;;;;;17.50;16.00;;;;;15.79;48.11;100266.06;2111676;27;48101;-59
2022/04/25 02:55:17;;;;;;;;;20.25;20.25;;;;;15.79;48.49;100262.53;2096388;28;47525;-59
2022/04/25 02:56:17;;;;;;;;;22.25;20.75;;;;;15.79;48.25;100267.88;2096059;28;47285;-59
2022/04/25 02:57:18;;;;;;;;;17.00;16.50;;;;;15.78;48.25;100266.13;2096421;28;47436;-58
2022/04/25 02:58:21;;;;;;;;;19.00;17.75;;;;;15.78;48.58;100263.47;2096262;28;47761;-59
2022/04/25 02:59:22;;;;;;;;;21.40;21.40;;;;;15.77;48.38;100267.09;2093860;28;47718;-59
2022/04/25 03:00:22;;;;;;;;;19.25;18.50;;;;;15.77;48.72;100261.72;2087833;28;47219;-59
2022/04/25 03:01:23;;;;;;;;;20.25;18.25;;;;;15.75;48.73;100259.13;2093404;28;47387;-59
2022/04/25 03:02:24;;;;;;;;;21.00;21.00;;;;;15.73;48.42;100271.69;2095360;28;47547;-60
2022/04/25 03:03:25;;;;;;;;;22.25;21.25;;;;;15.70;48.33;100268.31;2095882;28;47677;-59
2022/04/25 03:04:25;;;;;;;;;22.60;21.20;;;;;15.67;48.84;100261.31;2096176;28;47685;-59
2022/04/25 03:05:25;;;;;;;;;24.25;21.75;;;;;15.64;48.87;100269.50;2095684;28;47489;-59
2022/04/25 03:06:26;;;;;;;;;21.25;20.25;;;;;15.63;48.75;100269.59;2095483;28;48238;-59
2022/04/25 03:07:26;;;;;;;;;21.50;20.50;;;;;15.61;49.01;100261.59;2096308;28;47632;-59
2022/04/25 03:08:27;;;;;;;;;22.75;22.75;;;;;15.58;48.75;100264.41;2096224;28;48149;-59
2022/04/25 03:09:28;;;;;;;;;21.20;19.40;;;;;15.56;48.97;100267.16;2096169;28;47960;-59
2022/04/25 03:10:28;;;;;;;;;22.75;20.50;;;;;15.56;49.18;100268.97;2096107;28;47537;-59
2022/04/25 03:11:29;;;;;;;;;21.75;21.75;;;;;15.56;49.18;100269.84;2096235;28;47191;-59
2022/04/25 03:12:32;;;;;;;;;20.25;19.75;;;;;15.54;49.18;100263.69;2093028;28;47392;-59
2022/04/25 03:13:34;;;;;;;;;22.00;21.60;;;;;15.53;49.26;100266.47;2087676;28;46587;-58
2022/04/25 03:14:34;;;;;;;;;21.80;21.80;;;;;15.50;49.42;100271.94;2094978;28;47616;-58
2022/04/25 03:15:38;;;;;;;;;21.75;20.75;;;;;15.48;49.43;100269.34;2095451;28;47856;-58
2022/04/25 03:16:39;;;;;;;;;21.40;20.60;;;;;15.46;49.39;100268.56;2096133;28;47524;-59
2022/04/25 03:17:41;;;;;;;;;22.60;20.00;;;;;15.45;49.58;100263.28;2095657;28;47579;-58
2022/04/25 03:18:42;;;;;;;;;22.40;21.20;;;;;15.45;49.19;100271.31;2095839;28;47343;-59
2022/04/25 03:19:44;;;;;;;;;24.25;22.75;;;;;15.44;49.59;100273.13;2096092;28;47485;-58
2022/04/25 03:20:48;;;;;;;;;21.40;21.20;;;;;15.43;49.74;100271.38;2099165;28;48022;-59
2022/04/25 03:21:48;;;;;;;;;24.00;23.80;;;;;15.42;49.67;100272.31;2104450;27;47537;-58
2022/04/25 03:22:49;;;;;;;;;21.75;20.25;;;;;15.42;49.62;100268.78;2103888;27;47749;-58
2022/04/25 03:23:51;;;;;;;;;21.60;20.40;;;;;15.42;49.58;100271.47;2094027;28;47787;-59
2022/04/25 03:24:51;;;;;;;;;23.40;22.40;;;;;15.43;49.80;100267.84;2095169;28;47516;-58
2022/04/25 03:25:52;;;;;;;;;24.75;22.75;;;;;15.43;49.42;100266.03;2103971;27;47555;-58
2022/04/25 03:26:52;;;;;;;;;23.25;22.50;;;;;15.43;49.48;100268.72;2104102;27;47543;-58
2022/04/25 03:27:53;;;;;;;;;25.75;23.75;;;;;15.41;49.45;100273.28;2104510;27;47175;-59
2022/04/25 03:28:54;;;;;;;;;24.00;21.40;;;;;15.40;49.80;100268.88;2103891;27;47651;-59
2022/04/25 03:29:55;;;;;;;;;24.00;23.80;;;;;15.40;49.68;100268.88;2104350;27;48474;-60
2022/04/25 03:30:55;;;;;;;;;25.50;23.75;;;;;15.39;50.02;100266.28;2103493;27;47653;-58
2022/04/25 03:31:56;;;;;;;;;26.00;24.00;;;;;15.40;49.61;100266.19;2103584;28;48093;-57
2022/04/25 03:32:56;;;;;;;;;25.50;23.00;;;;;15.41;50.11;100264.38;2104540;27;47403;-58
2022/04/25 03:33:57;;;;;;;;;19.50;19.00;;;;;15.40;49.96;100263.53;2103748;27;47854;-58
2022/04/25 03:34:57;;;;;;;;;26.25;24.25;;;;;15.39;49.86;100272.47;2104148;27;47615;-58
2022/04/25 03:35:58;;;;;;;;;25.00;23.25;;;;;15.39;50.11;100263.59;2104552;27;47362;-56
2022/04/25 03:36:58;;;;;;;;;23.75;23.75;;;;;15.38;49.83;100278.78;2104167;27;48037;-59
2022/04/25 03:37:59;;;;;;;;;25.25;23.75;;;;;15.38;50.20;100275.22;2094744;28;47585;-55
2022/04/25 03:39:00;;;;;;;;;24.40;23.00;;;;;15.36;50.14;100271.75;2094807;28;47975;-60
2022/04/25 03:40:00;;;;;;;;;25.00;23.50;;;;;15.34;50.17;100274.50;2104038;28;47057;-59
2022/04/25 03:41:01;;;;;;;;;25.25;23.75;;;;;15.34;50.01;100273.63;2104518;27;47475;-58
2022/04/25 03:42:01;;;;;;;;;23.00;22.75;;;;;15.32;49.85;100276.38;2104031;27;47145;-58
2022/04/25 03:43:03;;;;;;;;;22.25;21.25;;;;;15.32;50.38;100277.25;2104229;27;47444;-58
2022/04/25 03:44:03;;;;;;;;;26.60;26.40;;;;;15.32;49.93;100279.06;2096435;27;47726;-58
2022/04/25 03:45:05;;;;;;;;;29.50;25.00;;;;;15.30;50.37;100279.13;2100341;28;47265;-58
2022/04/25 03:46:05;;;;;;;;;24.80;23.80;;;;;15.28;50.03;100275.66;2101716;28;47609;-58
2022/04/25 03:47:06;;;;;;;;;23.50;23.00;;;;;15.25;50.31;100277.63;2084753;28;47597;-58
2022/04/25 03:48:07;;;;;;;;;19.50;16.75;;;;;15.24;50.62;100279.41;2084395;28;47626;-58
2022/04/25 03:49:07;;;;;;;;;21.50;21.50;;;;;15.23;50.58;100276.81;2103862;28;48110;-59
2022/04/25 03:50:09;;;;;;;;;24.50;24.50;;;;;15.23;50.42;100274.13;2103891;27;47834;-58
2022/04/25 03:51:09;;;;;;;;;23.40;21.80;;;;;15.23;50.43;100282.16;2103900;27;47373;-58
2022/04/25 03:52:10;;;;;;;;;24.00;22.25;;;;;15.22;50.75;100281.28;2104345;27;47877;-60
2022/04/25 03:53:12;;;;;;;;;24.50;22.50;;;;;15.21;50.34;100284.03;2103727;27;47896;-58
2022/04/25 03:57:09;;;;;;;;;22.80;22.60;;;;;15.20;50.91;100276.97;2103862;27;48038;-59
2022/04/25 03:57:12;;;;;;;;;22.40;21.00;;;;;15.18;50.83;100282.38;2104201;28;47391;-58
2022/04/25 03:58:12;;;;;;;;;21.40;19.60;;;;;15.17;51.04;100283.31;2104003;27;48110;-58
2022/04/25 03:59:13;;;;;;;;;22.00;21.75;;;;;15.19;51.02;100284.13;2103460;27;47662;-57
2022/04/25 04:00:13;;;;;;;;;26.00;23.25;;;;;15.20;50.69;100282.31;2104186;27;47395;-60
2022/04/25 04:01:14;;;;;;;;;23.00;20.75;;;;;15.20;50.98;100284.97;2103554;27;47344;-59
2022/04/25 04:02:14;;;;;;;;;24.25;23.50;;;;;15.19;51.08;100285.94;2104316;27;47580;-59
2022/04/25 04:03:17;;;;;;;;;25.75;24.00;;;;;15.18;50.73;100290.41;2103493;28;47566;-59
2022/04/25 04:04:18;;;;;;;;;23.20;23.20;;;;;15.17;50.60;100288.69;2103522;28;47989;-59
2022/04/25 04:05:19;;;;;;;;;24.75;23.75;;;;;15.16;50.81;100288.75;2104177;27;47741;-59
2022/04/25 04:06:19;;;;;;;;;17.00;13.75;;;;;15.14;51.27;100285.28;2103632;28;47939;-59
2022/04/25 04:07:19;;;;;;;;;22.00;21.25;;;;;15.12;51.22;100289.81;2103629;28;47933;-59
2022/04/25 04:08:20;;;;;;;;;25.50;23.00;;;;;15.11;51.49;100291.63;2104488;28;47147;-59
2022/04/25 04:10:40;;;;;;;;;23.20;20.80;;;;;15.10;51.10;100291.69;2104174;28;48227;-59
2022/04/25 04:11:46;;;;;;;;;22.00;21.60;;;;;15.09;51.15;100290.84;2104060;27;47866;-59
2022/04/25 04:12:46;;;;;;;;;23.00;21.60;;;;;15.09;51.32;100296.19;2098208;27;47982;-59
2022/04/25 04:13:47;;;;;;;;;26.25;24.75;;;;;15.09;50.99;100292.63;2097112;28;47734;-59
2022/04/25 04:14:48;;;;;;;;;25.00;23.50;;;;;15.09;51.07;100300.66;2096688;27;47993;-59
2022/04/25 04:15:48;;;;;;;;;30.50;28.25;;;;;15.07;50.95;100298.06;2101095;28;47079;-59
2022/04/25 04:16:48;;;;;;;;;27.75;25.75;;;;;15.07;51.25;100300.72;2104188;27;47979;-59
2022/04/25 04:17:49;;;;;;;;;28.00;22.75;;;;;15.07;51.45;100299.88;2104201;27;47561;-59
2022/04/25 04:18:49;;;;;;;;;26.75;25.00;;;;;15.06;51.35;100299.00;2100886;27;47526;-58
2022/04/25 04:19:50;;;;;;;;;24.75;24.25;;;;;15.07;51.21;100303.41;2095716;28;47495;-59
2022/04/25 04:20:50;;;;;;;;;28.00;25.25;;;;;15.05;51.14;100299.94;2100078;28;47874;-58
2022/04/25 04:21:52;;;;;;;;;26.00;24.00;;;;;15.03;51.50;100301.81;2103928;27;47236;-59
2022/04/25 04:22:52;;;;;;;;;24.40;23.80;;;;;15.02;51.34;100300.97;2103741;27;47780;-58
2022/04/25 04:23:52;;;;;;;;;24.50;23.00;;;;;15.01;51.54;100311.72;2103740;27;47641;-59
2022/04/25 04:25:02;;;;;;;;;23.75;23.00;;;;;15.01;51.36;100309.06;2104343;27;47168;-59
2022/04/25 04:26:02;;;;;;;;;24.20;21.40;;;;;14.98;51.72;100309.16;2103101;28;47233;-59
2022/04/25 04:27:04;;;;;;;;;24.00;23.00;;;;;14.95;51.80;100312.84;2103269;28;47416;-58
2022/04/25 04:28:06;;;;;;;;;25.20;25.20;;;;;14.94;51.52;100318.28;2104020;27;47988;-58
2022/04/25 04:29:06;;;;;;;;;26.20;25.20;;;;;14.94;51.96;100320.94;2103605;27;47835;-58
2022/04/25 04:30:10;;;;;;;;;26.75;24.75;;;;;14.94;51.94;100319.13;2102269;28;48132;-59
2022/04/25 04:31:10;;;;;;;;;26.80;23.60;;;;;14.94;51.89;100315.59;2095240;28;47969;-59
2022/04/25 04:32:13;;;;;;;;;23.50;22.00;;;;;14.94;51.61;100312.94;2103465;27;47419;-59
2022/04/25 04:33:14;;;;;;;;;27.00;24.00;;;;;14.93;51.78;100311.19;2103649;27;47305;-59
2022/04/25 04:34:14;;;;;;;;;23.50;23.50;;;;;14.92;52.01;100315.66;2104108;27;48028;-58
2022/04/25 04:36:17;;;;;;;;;27.00;25.25;;;;;14.91;51.89;100316.63;2103630;27;47576;-59
2022/04/25 04:36:38;;;;;;;;;26.20;22.80;;;;;14.89;52.19;100321.16;2103573;27;47754;-57
2022/04/25 04:37:39;;;;;;;;;26.50;25.25;;;;;14.90;52.22;100320.22;2104092;27;48195;-59
2022/04/25 04:38:40;;;;;;;;;25.60;25.20;;;;;14.88;51.90;100324.78;2103352;27;47593;-59
2022/04/25 04:39:40;;;;;;;;;21.25;21.25;;;;;14.86;51.94;100318.59;2098665;28;48122;-59
2022/04/25 04:40:41;;;;;;;;;24.75;24.75;;;;;14.86;52.02;100318.59;2100994;28;47977;-58
2022/04/25 04:41:41;;;;;;;;;29.00;25.75;;;;;14.86;52.28;100323.94;2096988;27;47531;-59
2022/04/25 04:42:42;;;;;;;;;25.50;23.75;;;;;14.87;52.34;100322.19;2095638;28;47602;-59
2022/04/25 04:43:42;;;;;;;;;30.25;28.75;;;;;14.85;52.23;100330.22;2090979;28;47484;-58
2022/04/25 04:44:43;;;;;;;;;26.50;26.00;;;;;14.84;51.82;100322.28;2099688;28;47528;-58